sensor_id;sensor_type;location;lat;lon;timestamp;P1;durP1;ratioP1;P2;durP2;ratioP2
8183;SDS011;4133;48.752;9.088;2023-04-03T00:00:47;2.80;;;2.50;;
8183;SDS011;4133;48.752;9.088;2023-04-03T00:03:14;2.60;;;2.40;;
8183;SDS011;4133;48.752;9.088;2023-04-03T00:05:40;4.10;;;2.00;;
8183;SDS011;4133;48.752;9.088;2023-04-03T00:08:07;3.60;;;2.30;;
8183;SDS011;4133;48.752;9.088;2023-04-03T00:10:34;3.07;;;2.10;;
8183;SDS011;4133;48.752;9.088;2023-04-03T00:13:00;2.40;;;2.13;;
8183;SDS011;4133;48.752;9.088;2023-04-03T00:15:26;2.40;;;2.20;;
8183;SDS011;4133;48.752;9.088;2023-04-03T00:17:52;4.33;;;2.00;;
8183;SDS011;4133;48.752;9.088;2023-04-03T00:20:18;4.27;;;2.43;;
8183;SDS011;4133;48.752;9.088;2023-04-03T00:22:45;3.33;;;2.40;;
8183;SDS011;4133;48.752;9.088;2023-04-03T00:25:11;5.70;;;2.30;;
8183;SDS011;4133;48.752;9.088;2023-04-03T00:27:37;3.27;;;2.10;;
8183;SDS011;4133;48.752;9.088;2023-04-03T00:30:04;3.93;;;2.27;;
8183;SDS011;4133;48.752;9.088;2023-04-03T00:32:30;2.53;;;2.23;;
8183;SDS011;4133;48.752;9.088;2023-04-03T00:34:56;2.57;;;2.23;;
8183;SDS011;4133;48.752;9.088;2023-04-03T00:37:22;2.77;;;2.47;;
8183;SDS011;4133;48.752;9.088;2023-04-03T00:39:48;2.77;;;2.03;;
8183;SDS011;4133;48.752;9.088;2023-04-03T00:42:14;4.03;;;2.30;;
8183;SDS011;4133;48.752;9.088;2023-04-03T00:47:08;2.47;;;1.90;;
8183;SDS011;4133;48.752;9.088;2023-04-03T00:49:35;2.60;;;2.17;;
8183;SDS011;4133;48.752;9.088;2023-04-03T00:52:02;2.83;;;2.10;;
8183;SDS011;4133;48.752;9.088;2023-04-03T00:54:28;2.53;;;2.33;;
8183;SDS011;4133;48.752;9.088;2023-04-03T00:56:55;3.17;;;2.30;;
8183;SDS011;4133;48.752;9.088;2023-04-03T00:59:23;3.13;;;2.17;;
8183;SDS011;4133;48.752;9.088;2023-04-03T01:01:52;2.53;;;2.17;;
8183;SDS011;4133;48.752;9.088;2023-04-03T01:04:30;3.00;;;2.23;;
8183;SDS011;4133;48.752;9.088;2023-04-03T01:06:57;2.67;;;2.27;;
8183;SDS011;4133;48.752;9.088;2023-04-03T01:09:25;2.97;;;2.30;;
8183;SDS011;4133;48.752;9.088;2023-04-03T01:11:51;2.50;;;2.30;;
8183;SDS011;4133;48.752;9.088;2023-04-03T01:14:17;2.50;;;2.17;;
8183;SDS011;4133;48.752;9.088;2023-04-03T01:16:51;2.20;;;2.00;;
8183;SDS011;4133;48.752;9.088;2023-04-03T01:19:17;2.30;;;1.90;;
8183;SDS011;4133;48.752;9.088;2023-04-03T01:21:47;3.47;;;2.23;;
8183;SDS011;4133;48.752;9.088;2023-04-03T01:24:24;2.83;;;2.40;;
8183;SDS011;4133;48.752;9.088;2023-04-03T01:26:51;2.60;;;2.10;;
8183;SDS011;4133;48.752;9.088;2023-04-03T01:29:17;3.60;;;2.33;;
8183;SDS011;4133;48.752;9.088;2023-04-03T01:31:51;4.13;;;2.33;;
8183;SDS011;4133;48.752;9.088;2023-04-03T01:34:17;2.90;;;2.17;;
8183;SDS011;4133;48.752;9.088;2023-04-03T01:36:43;2.40;;;2.10;;
8183;SDS011;4133;48.752;9.088;2023-04-03T01:39:09;3.90;;;2.40;;
8183;SDS011;4133;48.752;9.088;2023-04-03T01:41:36;3.70;;;2.20;;
8183;SDS011;4133;48.752;9.088;2023-04-03T01:44:02;2.30;;;2.00;;
8183;SDS011;4133;48.752;9.088;2023-04-03T01:46:28;3.60;;;2.37;;
8183;SDS011;4133;48.752;9.088;2023-04-03T01:48:54;3.87;;;2.20;;
8183;SDS011;4133;48.752;9.088;2023-04-03T01:51:20;3.50;;;2.33;;
8183;SDS011;4133;48.752;9.088;2023-04-03T01:53:46;2.93;;;2.50;;
8183;SDS011;4133;48.752;9.088;2023-04-03T01:56:12;6.17;;;2.27;;
8183;SDS011;4133;48.752;9.088;2023-04-03T01:58:39;5.27;;;2.47;;
8183;SDS011;4133;48.752;9.088;2023-04-03T02:01:05;4.07;;;2.50;;
8183;SDS011;4133;48.752;9.088;2023-04-03T02:03:31;3.17;;;2.10;;
8183;SDS011;4133;48.752;9.088;2023-04-03T02:05:57;5.93;;;2.70;;
8183;SDS011;4133;48.752;9.088;2023-04-03T02:08:23;2.67;;;2.00;;
8183;SDS011;4133;48.752;9.088;2023-04-03T02:10:50;3.37;;;2.40;;
8183;SDS011;4133;48.752;9.088;2023-04-03T02:13:16;2.57;;;2.33;;
8183;SDS011;4133;48.752;9.088;2023-04-03T02:15:42;3.17;;;2.23;;
8183;SDS011;4133;48.752;9.088;2023-04-03T02:18:08;3.30;;;2.20;;
8183;SDS011;4133;48.752;9.088;2023-04-03T02:20:34;4.17;;;2.33;;
8183;SDS011;4133;48.752;9.088;2023-04-03T02:23:00;3.17;;;2.20;;
8183;SDS011;4133;48.752;9.088;2023-04-03T02:25:26;2.97;;;2.30;;
8183;SDS011;4133;48.752;9.088;2023-04-03T02:27:52;3.40;;;2.30;;
8183;SDS011;4133;48.752;9.088;2023-04-03T02:30:18;3.40;;;2.60;;
8183;SDS011;4133;48.752;9.088;2023-04-03T02:32:44;2.67;;;2.33;;
8183;SDS011;4133;48.752;9.088;2023-04-03T02:35:11;3.67;;;2.30;;
8183;SDS011;4133;48.752;9.088;2023-04-03T02:37:43;2.40;;;2.20;;
8183;SDS011;4133;48.752;9.088;2023-04-03T02:40:09;2.63;;;2.43;;
8183;SDS011;4133;48.752;9.088;2023-04-03T02:42:36;2.30;;;2.10;;
8183;SDS011;4133;48.752;9.088;2023-04-03T02:45:02;2.60;;;2.30;;
8183;SDS011;4133;48.752;9.088;2023-04-03T02:47:28;2.93;;;2.40;;
8183;SDS011;4133;48.752;9.088;2023-04-03T02:49:54;3.67;;;2.57;;
8183;SDS011;4133;48.752;9.088;2023-04-03T02:52:20;2.80;;;2.27;;
8183;SDS011;4133;48.752;9.088;2023-04-03T02:54:46;3.07;;;2.30;;
8183;SDS011;4133;48.752;9.088;2023-04-03T02:57:12;2.53;;;2.33;;
8183;SDS011;4133;48.752;9.088;2023-04-03T02:59:38;3.33;;;2.50;;
8183;SDS011;4133;48.752;9.088;2023-04-03T03:02:06;2.73;;;2.10;;
8183;SDS011;4133;48.752;9.088;2023-04-03T03:04:32;2.40;;;2.20;;
8183;SDS011;4133;48.752;9.088;2023-04-03T03:06:58;2.40;;;2.20;;
8183;SDS011;4133;48.752;9.088;2023-04-03T03:09:24;2.23;;;2.03;;
8183;SDS011;4133;48.752;9.088;2023-04-03T03:11:51;3.47;;;2.30;;
8183;SDS011;4133;48.752;9.088;2023-04-03T03:14:17;2.63;;;1.90;;
8183;SDS011;4133;48.752;9.088;2023-04-03T03:16:43;2.77;;;2.20;;
8183;SDS011;4133;48.752;9.088;2023-04-03T03:19:09;2.30;;;2.10;;
8183;SDS011;4133;48.752;9.088;2023-04-03T03:21:36;2.70;;;2.07;;
8183;SDS011;4133;48.752;9.088;2023-04-03T03:24:02;2.80;;;2.03;;
8183;SDS011;4133;48.752;9.088;2023-04-03T03:26:28;3.23;;;2.40;;
8183;SDS011;4133;48.752;9.088;2023-04-03T03:28:54;2.73;;;2.30;;
8183;SDS011;4133;48.752;9.088;2023-04-03T03:31:20;2.27;;;2.07;;
8183;SDS011;4133;48.752;9.088;2023-04-03T03:33:46;5.80;;;2.43;;
8183;SDS011;4133;48.752;9.088;2023-04-03T03:36:12;3.57;;;2.53;;
8183;SDS011;4133;48.752;9.088;2023-04-03T03:38:39;2.30;;;2.10;;
8183;SDS011;4133;48.752;9.088;2023-04-03T03:41:05;3.27;;;2.30;;
8183;SDS011;4133;48.752;9.088;2023-04-03T03:43:31;3.20;;;2.10;;
8183;SDS011;4133;48.752;9.088;2023-04-03T03:45:57;4.43;;;2.10;;
8183;SDS011;4133;48.752;9.088;2023-04-03T03:48:24;2.10;;;1.90;;
8183;SDS011;4133;48.752;9.088;2023-04-03T03:50:50;3.23;;;2.23;;
8183;SDS011;4133;48.752;9.088;2023-04-03T03:53:16;2.27;;;2.13;;
8183;SDS011;4133;48.752;9.088;2023-04-03T03:55:42;3.20;;;1.90;;
8183;SDS011;4133;48.752;9.088;2023-04-03T03:58:09;2.53;;;2.00;;
8183;SDS011;4133;48.752;9.088;2023-04-03T04:00:35;2.20;;;1.97;;
8183;SDS011;4133;48.752;9.088;2023-04-03T04:03:01;3.33;;;1.77;;
8183;SDS011;4133;48.752;9.088;2023-04-03T04:05:27;4.00;;;2.30;;
8183;SDS011;4133;48.752;9.088;2023-04-03T04:07:53;3.30;;;2.27;;
8183;SDS011;4133;48.752;9.088;2023-04-03T04:10:19;2.57;;;2.00;;
8183;SDS011;4133;48.752;9.088;2023-04-03T04:12:45;2.23;;;1.90;;
8183;SDS011;4133;48.752;9.088;2023-04-03T04:15:11;4.23;;;2.03;;
8183;SDS011;4133;48.752;9.088;2023-04-03T04:17:38;2.77;;;2.00;;
8183;SDS011;4133;48.752;9.088;2023-04-03T04:20:05;2.77;;;2.10;;
8183;SDS011;4133;48.752;9.088;2023-04-03T04:22:31;3.33;;;2.10;;
8183;SDS011;4133;48.752;9.088;2023-04-03T04:24:57;4.83;;;2.20;;
8183;SDS011;4133;48.752;9.088;2023-04-03T04:27:23;2.70;;;2.20;;
8183;SDS011;4133;48.752;9.088;2023-04-03T04:29:49;2.43;;;2.00;;
8183;SDS011;4133;48.752;9.088;2023-04-03T04:32:15;3.17;;;2.20;;
8183;SDS011;4133;48.752;9.088;2023-04-03T04:34:41;3.33;;;2.20;;
8183;SDS011;4133;48.752;9.088;2023-04-03T04:40:00;4.50;;;2.13;;
8183;SDS011;4133;48.752;9.088;2023-04-03T04:42:26;2.47;;;2.13;;
8183;SDS011;4133;48.752;9.088;2023-04-03T04:44:52;2.23;;;2.00;;
8183;SDS011;4133;48.752;9.088;2023-04-03T04:47:19;4.13;;;2.00;;
8183;SDS011;4133;48.752;9.088;2023-04-03T04:49:45;2.63;;;2.07;;
8183;SDS011;4133;48.752;9.088;2023-04-03T04:52:12;3.30;;;2.30;;
8183;SDS011;4133;48.752;9.088;2023-04-03T04:54:38;2.20;;;2.00;;
8183;SDS011;4133;48.752;9.088;2023-04-03T04:57:04;2.27;;;1.97;;
8183;SDS011;4133;48.752;9.088;2023-04-03T04:59:30;2.33;;;1.70;;
8183;SDS011;4133;48.752;9.088;2023-04-03T05:01:56;1.80;;;1.70;;
8183;SDS011;4133;48.752;9.088;2023-04-03T05:04:22;1.87;;;1.60;;
8183;SDS011;4133;48.752;9.088;2023-04-03T05:06:48;2.23;;;1.90;;
8183;SDS011;4133;48.752;9.088;2023-04-03T05:09:14;2.20;;;1.77;;
8183;SDS011;4133;48.752;9.088;2023-04-03T05:11:40;2.17;;;1.90;;
8183;SDS011;4133;48.752;9.088;2023-04-03T05:14:06;2.27;;;1.80;;
8183;SDS011;4133;48.752;9.088;2023-04-03T05:16:32;2.17;;;1.70;;
8183;SDS011;4133;48.752;9.088;2023-04-03T05:18:58;4.73;;;1.90;;
8183;SDS011;4133;48.752;9.088;2023-04-03T05:21:24;3.10;;;1.90;;
8183;SDS011;4133;48.752;9.088;2023-04-03T05:23:52;2.00;;;1.70;;
8183;SDS011;4133;48.752;9.088;2023-04-03T05:26:18;1.63;;;1.53;;
8183;SDS011;4133;48.752;9.088;2023-04-03T05:28:45;1.57;;;1.47;;
8183;SDS011;4133;48.752;9.088;2023-04-03T05:31:12;2.23;;;2.03;;
8183;SDS011;4133;48.752;9.088;2023-04-03T05:33:38;1.83;;;1.60;;
8183;SDS011;4133;48.752;9.088;2023-04-03T05:36:07;3.10;;;1.83;;
8183;SDS011;4133;48.752;9.088;2023-04-03T05:38:33;1.80;;;1.60;;
8183;SDS011;4133;48.752;9.088;2023-04-03T05:40:59;1.90;;;1.70;;
8183;SDS011;4133;48.752;9.088;2023-04-03T05:43:25;2.83;;;1.80;;
8183;SDS011;4133;48.752;9.088;2023-04-03T05:45:51;4.67;;;2.00;;
8183;SDS011;4133;48.752;9.088;2023-04-03T05:48:17;1.97;;;1.83;;
8183;SDS011;4133;48.752;9.088;2023-04-03T05:50:43;2.30;;;1.80;;
8183;SDS011;4133;48.752;9.088;2023-04-03T05:53:14;2.43;;;1.80;;
8183;SDS011;4133;48.752;9.088;2023-04-03T05:55:41;3.17;;;2.00;;
8183;SDS011;4133;48.752;9.088;2023-04-03T05:58:07;3.43;;;1.80;;
8183;SDS011;4133;48.752;9.088;2023-04-03T06:00:33;3.67;;;1.70;;
8183;SDS011;4133;48.752;9.088;2023-04-03T06:02:59;4.90;;;2.00;;
8183;SDS011;4133;48.752;9.088;2023-04-03T06:05:25;2.13;;;1.80;;
8183;SDS011;4133;48.752;9.088;2023-04-03T06:07:51;4.40;;;1.83;;
8183;SDS011;4133;48.752;9.088;2023-04-03T06:10:17;2.63;;;1.80;;
8183;SDS011;4133;48.752;9.088;2023-04-03T06:12:45;4.30;;;1.87;;
8183;SDS011;4133;48.752;9.088;2023-04-03T06:15:11;2.03;;;1.70;;
8183;SDS011;4133;48.752;9.088;2023-04-03T06:17:37;2.20;;;2.00;;
8183;SDS011;4133;48.752;9.088;2023-04-03T06:20:03;3.20;;;1.90;;
8183;SDS011;4133;48.752;9.088;2023-04-03T06:22:30;2.37;;;1.83;;
8183;SDS011;4133;48.752;9.088;2023-04-03T06:24:56;2.00;;;1.80;;
8183;SDS011;4133;48.752;9.088;2023-04-03T06:27:22;2.33;;;1.80;;
8183;SDS011;4133;48.752;9.088;2023-04-03T06:29:48;2.20;;;1.87;;
8183;SDS011;4133;48.752;9.088;2023-04-03T06:32:15;1.90;;;1.80;;
8183;SDS011;4133;48.752;9.088;2023-04-03T06:34:41;2.10;;;1.90;;
8183;SDS011;4133;48.752;9.088;2023-04-03T06:37:14;1.80;;;1.70;;
8183;SDS011;4133;48.752;9.088;2023-04-03T06:39:41;2.47;;;1.87;;
8183;SDS011;4133;48.752;9.088;2023-04-03T06:42:07;4.87;;;1.60;;
8183;SDS011;4133;48.752;9.088;2023-04-03T06:44:33;1.90;;;1.70;;
8183;SDS011;4133;48.752;9.088;2023-04-03T06:46:59;4.17;;;1.97;;
8183;SDS011;4133;48.752;9.088;2023-04-03T06:49:25;2.97;;;2.10;;
8183;SDS011;4133;48.752;9.088;2023-04-03T06:51:51;1.90;;;1.80;;
8183;SDS011;4133;48.752;9.088;2023-04-03T06:54:17;1.87;;;1.70;;
8183;SDS011;4133;48.752;9.088;2023-04-03T06:56:43;2.63;;;1.83;;
8183;SDS011;4133;48.752;9.088;2023-04-03T06:59:10;2.33;;;1.60;;
8183;SDS011;4133;48.752;9.088;2023-04-03T07:01:36;3.70;;;1.87;;
8183;SDS011;4133;48.752;9.088;2023-04-03T07:04:02;2.30;;;1.90;;
8183;SDS011;4133;48.752;9.088;2023-04-03T07:06:28;2.20;;;1.70;;
8183;SDS011;4133;48.752;9.088;2023-04-03T07:08:54;2.00;;;1.80;;
8183;SDS011;4133;48.752;9.088;2023-04-03T07:11:20;2.70;;;1.90;;
8183;SDS011;4133;48.752;9.088;2023-04-03T07:13:47;3.27;;;1.90;;
8183;SDS011;4133;48.752;9.088;2023-04-03T07:16:13;3.63;;;2.30;;
8183;SDS011;4133;48.752;9.088;2023-04-03T07:18:39;2.20;;;2.00;;
8183;SDS011;4133;48.752;9.088;2023-04-03T07:21:06;2.90;;;1.87;;
8183;SDS011;4133;48.752;9.088;2023-04-03T07:23:33;2.97;;;1.90;;
8183;SDS011;4133;48.752;9.088;2023-04-03T07:25:59;3.00;;;2.07;;
8183;SDS011;4133;48.752;9.088;2023-04-03T07:28:26;1.87;;;1.67;;
8183;SDS011;4133;48.752;9.088;2023-04-03T07:30:53;3.53;;;2.05;;
8183;SDS011;4133;48.752;9.088;2023-04-03T07:33:21;2.90;;;2.00;;
8183;SDS011;4133;48.752;9.088;2023-04-03T07:35:47;2.40;;;1.77;;
8183;SDS011;4133;48.752;9.088;2023-04-03T07:41:18;3.67;;;2.00;;
8183;SDS011;4133;48.752;9.088;2023-04-03T07:43:46;2.30;;;1.77;;
8183;SDS011;4133;48.752;9.088;2023-04-03T07:46:12;4.30;;;1.83;;
8183;SDS011;4133;48.752;9.088;2023-04-03T07:48:38;2.87;;;2.20;;
8183;SDS011;4133;48.752;9.088;2023-04-03T07:51:04;2.60;;;1.90;;
8183;SDS011;4133;48.752;9.088;2023-04-03T07:53:30;2.27;;;1.73;;
8183;SDS011;4133;48.752;9.088;2023-04-03T07:55:57;2.23;;;1.73;;
8183;SDS011;4133;48.752;9.088;2023-04-03T07:58:23;3.67;;;2.17;;
8183;SDS011;4133;48.752;9.088;2023-04-03T08:00:50;3.77;;;1.97;;
8183;SDS011;4133;48.752;9.088;2023-04-03T08:03:16;3.33;;;2.10;;
8183;SDS011;4133;48.752;9.088;2023-04-03T08:05:43;2.50;;;2.00;;
8183;SDS011;4133;48.752;9.088;2023-04-03T08:08:11;2.47;;;2.20;;
8183;SDS011;4133;48.752;9.088;2023-04-03T08:10:37;4.37;;;1.90;;
8183;SDS011;4133;48.752;9.088;2023-04-03T08:13:04;2.30;;;1.90;;
8183;SDS011;4133;48.752;9.088;2023-04-03T08:15:30;3.57;;;2.00;;
8183;SDS011;4133;48.752;9.088;2023-04-03T08:17:57;3.43;;;1.80;;
8183;SDS011;4133;48.752;9.088;2023-04-03T08:20:23;3.83;;;2.20;;
8183;SDS011;4133;48.752;9.088;2023-04-03T08:25:47;2.20;;;1.70;;
8183;SDS011;4133;48.752;9.088;2023-04-03T08:28:13;4.30;;;1.80;;
8183;SDS011;4133;48.752;9.088;2023-04-03T08:30:39;4.73;;;2.10;;
8183;SDS011;4133;48.752;9.088;2023-04-03T08:33:07;4.13;;;1.97;;
8183;SDS011;4133;48.752;9.088;2023-04-03T08:35:33;2.80;;;1.57;;
8183;SDS011;4133;48.752;9.088;2023-04-03T08:38:03;3.93;;;2.00;;
8183;SDS011;4133;48.752;9.088;2023-04-03T08:40:29;3.03;;;1.90;;
8183;SDS011;4133;48.752;9.088;2023-04-03T08:48:06;2.27;;;1.67;;
8183;SDS011;4133;48.752;9.088;2023-04-03T08:50:34;4.23;;;2.00;;
8183;SDS011;4133;48.752;9.088;2023-04-03T08:53:02;4.07;;;2.00;;
8183;SDS011;4133;48.752;9.088;2023-04-03T08:55:33;3.90;;;2.00;;
8183;SDS011;4133;48.752;9.088;2023-04-03T09:00:26;2.80;;;1.80;;
8183;SDS011;4133;48.752;9.088;2023-04-03T09:02:55;2.70;;;1.90;;
8183;SDS011;4133;48.752;9.088;2023-04-03T09:05:31;2.60;;;1.83;;
8183;SDS011;4133;48.752;9.088;2023-04-03T09:10:26;2.27;;;1.80;;
8183;SDS011;4133;48.752;9.088;2023-04-03T09:12:54;2.67;;;1.80;;
8183;SDS011;4133;48.752;9.088;2023-04-03T09:15:23;2.03;;;1.83;;
8183;SDS011;4133;48.752;9.088;2023-04-03T09:20:25;2.30;;;1.73;;
8183;SDS011;4133;48.752;9.088;2023-04-03T09:22:52;3.37;;;2.00;;
8183;SDS011;4133;48.752;9.088;2023-04-03T09:27:48;3.70;;;1.83;;
8183;SDS011;4133;48.752;9.088;2023-04-03T09:30:15;1.90;;;1.70;;
8183;SDS011;4133;48.752;9.088;2023-04-03T09:32:43;4.03;;;1.73;;
8183;SDS011;4133;48.752;9.088;2023-04-03T09:37:52;2.07;;;1.63;;
8183;SDS011;4133;48.752;9.088;2023-04-03T09:40:27;2.37;;;1.97;;
8183;SDS011;4133;48.752;9.088;2023-04-03T09:42:54;3.73;;;1.87;;
8183;SDS011;4133;48.752;9.088;2023-04-03T09:45:26;4.27;;;1.90;;
8183;SDS011;4133;48.752;9.088;2023-04-03T09:48:37;1.70;;;1.60;;
8183;SDS011;4133;48.752;9.088;2023-04-03T09:51:00;4.17;;;1.80;;
8183;SDS011;4133;48.752;9.088;2023-04-03T09:55:58;2.63;;;2.07;;
8183;SDS011;4133;48.752;9.088;2023-04-03T09:58:25;2.03;;;1.60;;
8183;SDS011;4133;48.752;9.088;2023-04-03T10:00:59;3.00;;;1.70;;
8183;SDS011;4133;48.752;9.088;2023-04-03T10:03:28;3.50;;;1.90;;
8183;SDS011;4133;48.752;9.088;2023-04-03T10:05:54;1.87;;;1.77;;
8183;SDS011;4133;48.752;9.088;2023-04-03T10:08:24;5.03;;;2.13;;
8183;SDS011;4133;48.752;9.088;2023-04-03T10:11:35;2.23;;;1.63;;
8183;SDS011;4133;48.752;9.088;2023-04-03T10:13:42;3.03;;;1.63;;
8183;SDS011;4133;48.752;9.088;2023-04-03T10:16:15;2.13;;;1.60;;
8183;SDS011;4133;48.752;9.088;2023-04-03T10:23:42;2.07;;;1.53;;
8183;SDS011;4133;48.752;9.088;2023-04-03T10:28:45;2.83;;;1.70;;
8183;SDS011;4133;48.752;9.088;2023-04-03T10:31:15;2.47;;;1.50;;
8183;SDS011;4133;48.752;9.088;2023-04-03T10:39:02;3.97;;;1.60;;
8183;SDS011;4133;48.752;9.088;2023-04-03T10:43:59;4.23;;;1.60;;
8183;SDS011;4133;48.752;9.088;2023-04-03T10:46:42;4.87;;;1.70;;
8183;SDS011;4133;48.752;9.088;2023-04-03T10:51:45;4.03;;;1.70;;
8183;SDS011;4133;48.752;9.088;2023-04-03T10:54:16;5.07;;;1.67;;
8183;SDS011;4133;48.752;9.088;2023-04-03T10:56:50;1.50;;;1.40;;
8183;SDS011;4133;48.752;9.088;2023-04-03T11:01:48;4.77;;;1.50;;
8183;SDS011;4133;48.752;9.088;2023-04-03T11:04:17;3.20;;;2.30;;
8183;SDS011;4133;48.752;9.088;2023-04-03T11:06:46;2.00;;;1.40;;
8183;SDS011;4133;48.752;9.088;2023-04-03T11:09:22;2.63;;;1.77;;
8183;SDS011;4133;48.752;9.088;2023-04-03T11:11:49;2.60;;;1.50;;
8183;SDS011;4133;48.752;9.088;2023-04-03T11:16:47;2.23;;;1.40;;
8183;SDS011;4133;48.752;9.088;2023-04-03T11:19:20;1.73;;;1.47;;
8183;SDS011;4133;48.752;9.088;2023-04-03T11:24:37;2.70;;;1.40;;
8183;SDS011;4133;48.752;9.088;2023-04-03T11:27:05;1.30;;;1.13;;
8183;SDS011;4133;48.752;9.088;2023-04-03T11:29:34;2.20;;;1.50;;
8183;SDS011;4133;48.752;9.088;2023-04-03T11:32:21;1.93;;;1.50;;
8183;SDS011;4133;48.752;9.088;2023-04-03T11:34:53;2.13;;;1.53;;
8183;SDS011;4133;48.752;9.088;2023-04-03T11:39:56;2.43;;;1.50;;
8183;SDS011;4133;48.752;9.088;2023-04-03T11:47:49;3.63;;;1.40;;
8183;SDS011;4133;48.752;9.088;2023-04-03T12:08:26;1.67;;;1.40;;
8183;SDS011;4133;48.752;9.088;2023-04-03T12:14:20;2.33;;;1.50;;
8183;SDS011;4133;48.752;9.088;2023-04-03T12:26:22;4.23;;;1.60;;
8183;SDS011;4133;48.752;9.088;2023-04-03T12:28:51;2.67;;;1.37;;
8183;SDS011;4133;48.752;9.088;2023-04-03T12:31:17;3.08;;;1.65;;
8183;SDS011;4133;48.752;9.088;2023-04-03T12:33:52;1.87;;;1.63;;
8183;SDS011;4133;48.752;9.088;2023-04-03T12:39:20;3.07;;;1.67;;
8183;SDS011;4133;48.752;9.088;2023-04-03T12:47:16;2.17;;;1.57;;
8183;SDS011;4133;48.752;9.088;2023-04-03T12:49:46;2.07;;;1.40;;
8183;SDS011;4133;48.752;9.088;2023-04-03T12:52:17;2.07;;;1.53;;
8183;SDS011;4133;48.752;9.088;2023-04-03T12:54:45;1.67;;;1.50;;
8183;SDS011;4133;48.752;9.088;2023-04-03T12:57:16;1.83;;;1.33;;
8183;SDS011;4133;48.752;9.088;2023-04-03T12:59:42;4.47;;;1.50;;
8183;SDS011;4133;48.752;9.088;2023-04-03T13:02:16;2.33;;;1.50;;
8183;SDS011;4133;48.752;9.088;2023-04-03T13:04:43;2.33;;;1.30;;
8183;SDS011;4133;48.752;9.088;2023-04-03T13:07:24;3.23;;;1.57;;
8183;SDS011;4133;48.752;9.088;2023-04-03T13:12:34;2.73;;;1.60;;
8183;SDS011;4133;48.752;9.088;2023-04-03T13:15:01;4.43;;;1.50;;
8183;SDS011;4133;48.752;9.088;2023-04-03T13:17:29;1.73;;;1.40;;
8183;SDS011;4133;48.752;9.088;2023-04-03T13:19:55;3.17;;;1.40;;
8183;SDS011;4133;48.752;9.088;2023-04-03T13:22:33;3.17;;;1.50;;
8183;SDS011;4133;48.752;9.088;2023-04-03T13:25:04;2.73;;;1.27;;
8183;SDS011;4133;48.752;9.088;2023-04-03T13:27:31;2.30;;;1.47;;
8183;SDS011;4133;48.752;9.088;2023-04-03T13:29:58;3.13;;;1.30;;
8183;SDS011;4133;48.752;9.088;2023-04-03T13:32:26;3.00;;;1.50;;
8183;SDS011;4133;48.752;9.088;2023-04-03T13:34:52;2.07;;;1.50;;
8183;SDS011;4133;48.752;9.088;2023-04-03T13:40:20;2.67;;;1.37;;
8183;SDS011;4133;48.752;9.088;2023-04-03T13:42:46;2.57;;;1.60;;
8183;SDS011;4133;48.752;9.088;2023-04-03T13:45:25;3.93;;;1.40;;
8183;SDS011;4133;48.752;9.088;2023-04-03T13:47:54;3.70;;;1.70;;
8183;SDS011;4133;48.752;9.088;2023-04-03T13:50:32;1.83;;;1.20;;
8183;SDS011;4133;48.752;9.088;2023-04-03T13:53:02;2.23;;;1.50;;
8183;SDS011;4133;48.752;9.088;2023-04-03T13:55:33;2.23;;;1.37;;
8183;SDS011;4133;48.752;9.088;2023-04-03T13:58:01;2.03;;;1.53;;
8183;SDS011;4133;48.752;9.088;2023-04-03T14:02:55;2.60;;;1.30;;
8183;SDS011;4133;48.752;9.088;2023-04-03T14:05:21;2.57;;;1.60;;
8183;SDS011;4133;48.752;9.088;2023-04-03T14:07:49;2.43;;;1.30;;
8183;SDS011;4133;48.752;9.088;2023-04-03T14:10:15;4.27;;;1.47;;
8183;SDS011;4133;48.752;9.088;2023-04-03T14:12:41;1.67;;;1.40;;
8183;SDS011;4133;48.752;9.088;2023-04-03T14:15:12;2.83;;;1.30;;
8183;SDS011;4133;48.752;9.088;2023-04-03T14:17:41;3.03;;;1.43;;
8183;SDS011;4133;48.752;9.088;2023-04-03T14:20:10;3.20;;;1.50;;
8183;SDS011;4133;48.752;9.088;2023-04-03T14:22:39;2.63;;;1.40;;
8183;SDS011;4133;48.752;9.088;2023-04-03T14:25:05;2.73;;;1.53;;
8183;SDS011;4133;48.752;9.088;2023-04-03T14:27:36;3.03;;;1.50;;
8183;SDS011;4133;48.752;9.088;2023-04-03T14:30:03;3.00;;;1.50;;
8183;SDS011;4133;48.752;9.088;2023-04-03T14:32:29;2.00;;;1.77;;
8183;SDS011;4133;48.752;9.088;2023-04-03T14:34:55;2.67;;;1.87;;
8183;SDS011;4133;48.752;9.088;2023-04-03T14:37:36;3.73;;;1.80;;
8183;SDS011;4133;48.752;9.088;2023-04-03T14:40:03;2.50;;;1.73;;
8183;SDS011;4133;48.752;9.088;2023-04-03T14:42:30;1.90;;;1.53;;
8183;SDS011;4133;48.752;9.088;2023-04-03T14:44:57;2.60;;;1.63;;
8183;SDS011;4133;48.752;9.088;2023-04-03T14:47:24;1.70;;;1.60;;
8183;SDS011;4133;48.752;9.088;2023-04-03T14:49:51;3.70;;;1.80;;
8183;SDS011;4133;48.752;9.088;2023-04-03T14:52:27;2.80;;;1.67;;
8183;SDS011;4133;48.752;9.088;2023-04-03T14:54:53;1.57;;;1.37;;
8183;SDS011;4133;48.752;9.088;2023-04-03T14:57:19;2.20;;;1.57;;
8183;SDS011;4133;48.752;9.088;2023-04-03T14:59:47;2.40;;;1.33;;
8183;SDS011;4133;48.752;9.088;2023-04-03T15:02:35;2.23;;;1.40;;
8183;SDS011;4133;48.752;9.088;2023-04-03T15:05:00;1.57;;;1.47;;
8183;SDS011;4133;48.752;9.088;2023-04-03T15:07:29;1.67;;;1.13;;
8183;SDS011;4133;48.752;9.088;2023-04-03T15:09:56;2.27;;;1.50;;
8183;SDS011;4133;48.752;9.088;2023-04-03T15:12:23;5.60;;;1.80;;
8183;SDS011;4133;48.752;9.088;2023-04-03T15:14:49;3.57;;;1.57;;
8183;SDS011;4133;48.752;9.088;2023-04-03T15:17:16;7.67;;;1.60;;
8183;SDS011;4133;48.752;9.088;2023-04-03T15:19:43;1.80;;;1.40;;
8183;SDS011;4133;48.752;9.088;2023-04-03T15:22:16;2.67;;;1.80;;
8183;SDS011;4133;48.752;9.088;2023-04-03T15:24:42;1.27;;;1.20;;
8183;SDS011;4133;48.752;9.088;2023-04-03T15:27:09;1.90;;;1.33;;
8183;SDS011;4133;48.752;9.088;2023-04-03T15:29:35;2.17;;;1.50;;
8183;SDS011;4133;48.752;9.088;2023-04-03T15:32:02;3.47;;;1.50;;
8183;SDS011;4133;48.752;9.088;2023-04-03T15:34:28;1.87;;;1.40;;
8183;SDS011;4133;48.752;9.088;2023-04-03T15:39:58;2.97;;;1.80;;
8183;SDS011;4133;48.752;9.088;2023-04-03T15:42:24;2.57;;;1.40;;
8183;SDS011;4133;48.752;9.088;2023-04-03T15:44:50;1.87;;;1.20;;
8183;SDS011;4133;48.752;9.088;2023-04-03T15:47:16;2.00;;;1.37;;
8183;SDS011;4133;48.752;9.088;2023-04-03T15:49:42;1.70;;;1.30;;
8183;SDS011;4133;48.752;9.088;2023-04-03T15:52:08;3.23;;;1.70;;
8183;SDS011;4133;48.752;9.088;2023-04-03T15:54:34;1.20;;;1.10;;
8183;SDS011;4133;48.752;9.088;2023-04-03T15:57:00;2.43;;;1.50;;
8183;SDS011;4133;48.752;9.088;2023-04-03T15:59:26;2.63;;;1.40;;
8183;SDS011;4133;48.752;9.088;2023-04-03T16:01:55;2.23;;;1.53;;
8183;SDS011;4133;48.752;9.088;2023-04-03T16:04:21;1.70;;;1.50;;
8183;SDS011;4133;48.752;9.088;2023-04-03T16:06:48;2.33;;;1.43;;
8183;SDS011;4133;48.752;9.088;2023-04-03T16:09:14;1.73;;;1.23;;
8183;SDS011;4133;48.752;9.088;2023-04-03T16:11:40;2.03;;;1.50;;
8183;SDS011;4133;48.752;9.088;2023-04-03T16:14:09;2.40;;;1.47;;
8183;SDS011;4133;48.752;9.088;2023-04-03T16:16:35;3.93;;;1.60;;
8183;SDS011;4133;48.752;9.088;2023-04-03T16:19:02;2.53;;;1.63;;
8183;SDS011;4133;48.752;9.088;2023-04-03T16:21:28;3.23;;;1.20;;
8183;SDS011;4133;48.752;9.088;2023-04-03T16:23:58;1.93;;;1.30;;
8183;SDS011;4133;48.752;9.088;2023-04-03T16:26:24;1.43;;;1.33;;
8183;SDS011;4133;48.752;9.088;2023-04-03T16:28:51;1.93;;;1.53;;
8183;SDS011;4133;48.752;9.088;2023-04-03T16:31:17;2.10;;;1.40;;
8183;SDS011;4133;48.752;9.088;2023-04-03T16:33:43;2.53;;;1.53;;
8183;SDS011;4133;48.752;9.088;2023-04-03T16:39:28;2.70;;;1.70;;
8183;SDS011;4133;48.752;9.088;2023-04-03T16:41:54;2.00;;;1.43;;
8183;SDS011;4133;48.752;9.088;2023-04-03T16:44:20;1.90;;;1.50;;
8183;SDS011;4133;48.752;9.088;2023-04-03T16:46:46;1.90;;;1.47;;
8183;SDS011;4133;48.752;9.088;2023-04-03T16:49:12;2.27;;;1.60;;
8183;SDS011;4133;48.752;9.088;2023-04-03T16:51:38;2.13;;;1.40;;
8183;SDS011;4133;48.752;9.088;2023-04-03T16:54:04;1.40;;;1.30;;
8183;SDS011;4133;48.752;9.088;2023-04-03T16:56:31;2.60;;;1.40;;
8183;SDS011;4133;48.752;9.088;2023-04-03T16:58:57;2.50;;;1.47;;
8183;SDS011;4133;48.752;9.088;2023-04-03T17:01:23;2.77;;;1.33;;
8183;SDS011;4133;48.752;9.088;2023-04-03T17:03:49;3.17;;;1.50;;
8183;SDS011;4133;48.752;9.088;2023-04-03T17:06:16;1.50;;;1.40;;
8183;SDS011;4133;48.752;9.088;2023-04-03T17:08:43;1.30;;;1.20;;
8183;SDS011;4133;48.752;9.088;2023-04-03T17:11:09;2.20;;;1.33;;
8183;SDS011;4133;48.752;9.088;2023-04-03T17:13:35;2.47;;;1.60;;
8183;SDS011;4133;48.752;9.088;2023-04-03T17:16:02;1.83;;;1.50;;